sensor_id;sensor_type;location;lat;lon;timestamp;P1;durP1;ratioP1;P2;durP2;ratioP2
69126;SDS011;56688;50.234;19.292;2022-09-09T00:00:59;6.40;;;4.50;;
69126;SDS011;56688;50.234;19.292;2022-09-09T00:03:50;4.80;;;4.30;;
69126;SDS011;56688;50.234;19.292;2022-09-09T00:06:24;6.30;;;3.80;;
69126;SDS011;56688;50.234;19.292;2022-09-09T00:09:01;4.90;;;3.90;;
69126;SDS011;56688;50.234;19.292;2022-09-09T00:11:36;4.10;;;3.70;;
69126;SDS011;56688;50.234;19.292;2022-09-09T00:14:14;7.50;;;4.30;;
69126;SDS011;56688;50.234;19.292;2022-09-09T00:16:50;4.00;;;3.20;;
69126;SDS011;56688;50.234;19.292;2022-09-09T00:19:23;6.00;;;3.80;;
69126;SDS011;56688;50.234;19.292;2022-09-09T00:24:42;5.50;;;4.50;;
69126;SDS011;56688;50.234;19.292;2022-09-09T00:29:56;7.20;;;4.90;;
69126;SDS011;56688;50.234;19.292;2022-09-09T00:32:39;6.60;;;5.50;;
69126;SDS011;56688;50.234;19.292;2022-09-09T00:37:54;8.10;;;5.90;;
69126;SDS011;56688;50.234;19.292;2022-09-09T00:40:33;8.20;;;6.30;;
69126;SDS011;56688;50.234;19.292;2022-09-09T00:45:59;15.60;;;8.40;;
69126;SDS011;56688;50.234;19.292;2022-09-09T00:48:41;14.70;;;9.70;;
69126;SDS011;56688;50.234;19.292;2022-09-09T00:51:22;11.90;;;9.10;;
69126;SDS011;56688;50.234;19.292;2022-09-09T00:54:00;12.10;;;9.20;;
69126;SDS011;56688;50.234;19.292;2022-09-09T00:56:36;14.00;;;10.50;;
69126;SDS011;56688;50.234;19.292;2022-09-09T01:01:37;13.90;;;10.60;;
69126;SDS011;56688;50.234;19.292;2022-09-09T01:04:09;12.60;;;9.60;;
69126;SDS011;56688;50.234;19.292;2022-09-09T01:06:42;15.90;;;10.50;;
69126;SDS011;56688;50.234;19.292;2022-09-09T01:09:26;13.70;;;10.90;;
69126;SDS011;56688;50.234;19.292;2022-09-09T01:12:15;21.60;;;12.00;;
69126;SDS011;56688;50.234;19.292;2022-09-09T01:14:48;15.60;;;10.70;;
69126;SDS011;56688;50.234;19.292;2022-09-09T01:17:27;11.00;;;9.20;;
69126;SDS011;56688;50.234;19.292;2022-09-09T01:22:50;13.80;;;8.50;;
69126;SDS011;56688;50.234;19.292;2022-09-09T01:28:27;12.40;;;9.30;;
69126;SDS011;56688;50.234;19.292;2022-09-09T01:31:01;15.40;;;10.50;;
69126;SDS011;56688;50.234;19.292;2022-09-09T01:33:37;17.20;;;11.40;;
69126;SDS011;56688;50.234;19.292;2022-09-09T01:38:49;15.30;;;12.00;;
69126;SDS011;56688;50.234;19.292;2022-09-09T01:41:17;18.20;;;13.90;;
69126;SDS011;56688;50.234;19.292;2022-09-09T01:43:54;21.10;;;17.00;;
69126;SDS011;56688;50.234;19.292;2022-09-09T01:46:23;19.60;;;16.50;;
69126;SDS011;56688;50.234;19.292;2022-09-09T01:48:51;23.20;;;17.10;;
69126;SDS011;56688;50.234;19.292;2022-09-09T01:51:20;24.10;;;16.00;;
69126;SDS011;56688;50.234;19.292;2022-09-09T01:53:48;17.30;;;14.80;;
69126;SDS011;56688;50.234;19.292;2022-09-09T01:56:20;23.80;;;17.00;;
69126;SDS011;56688;50.234;19.292;2022-09-09T01:59:00;19.40;;;15.60;;
69126;SDS011;56688;50.234;19.292;2022-09-09T02:10:20;24.10;;;18.70;;
69126;SDS011;56688;50.234;19.292;2022-09-09T02:13:12;24.50;;;17.10;;
69126;SDS011;56688;50.234;19.292;2022-09-09T02:18:12;25.90;;;20.80;;
69126;SDS011;56688;50.234;19.292;2022-09-09T02:20:42;23.10;;;17.70;;
69126;SDS011;56688;50.234;19.292;2022-09-09T02:23:11;27.30;;;20.30;;
69126;SDS011;56688;50.234;19.292;2022-09-09T02:25:41;25.30;;;19.20;;
69126;SDS011;56688;50.234;19.292;2022-09-09T02:28:17;25.70;;;20.10;;
69126;SDS011;56688;50.234;19.292;2022-09-09T02:30:48;25.80;;;19.50;;
69126;SDS011;56688;50.234;19.292;2022-09-09T02:33:28;24.80;;;17.90;;
69126;SDS011;56688;50.234;19.292;2022-09-09T02:36:01;24.50;;;18.20;;
69126;SDS011;56688;50.234;19.292;2022-09-09T02:38:32;21.50;;;17.20;;
69126;SDS011;56688;50.234;19.292;2022-09-09T02:41:07;22.10;;;18.80;;
69126;SDS011;56688;50.234;19.292;2022-09-09T02:43:34;22.20;;;16.60;;
69126;SDS011;56688;50.234;19.292;2022-09-09T02:46:08;29.60;;;18.40;;
69126;SDS011;56688;50.234;19.292;2022-09-09T02:48:47;21.90;;;16.90;;
69126;SDS011;56688;50.234;19.292;2022-09-09T02:51:26;20.90;;;16.70;;
69126;SDS011;56688;50.234;19.292;2022-09-09T02:54:10;23.30;;;16.80;;
69126;SDS011;56688;50.234;19.292;2022-09-09T02:56:45;19.90;;;15.50;;
69126;SDS011;56688;50.234;19.292;2022-09-09T02:59:24;24.30;;;16.20;;
69126;SDS011;56688;50.234;19.292;2022-09-09T03:01:52;20.10;;;16.90;;
69126;SDS011;56688;50.234;19.292;2022-09-09T03:04:20;22.60;;;15.90;;
69126;SDS011;56688;50.234;19.292;2022-09-09T03:06:48;27.20;;;18.40;;
69126;SDS011;56688;50.234;19.292;2022-09-09T03:09:18;25.10;;;16.70;;
69126;SDS011;56688;50.234;19.292;2022-09-09T03:11:45;22.60;;;16.20;;
69126;SDS011;56688;50.234;19.292;2022-09-09T03:14:12;25.50;;;17.10;;
69126;SDS011;56688;50.234;19.292;2022-09-09T03:16:40;25.70;;;15.80;;
69126;SDS011;56688;50.234;19.292;2022-09-09T03:19:06;28.20;;;16.90;;
69126;SDS011;56688;50.234;19.292;2022-09-09T03:21:33;24.00;;;17.80;;
69126;SDS011;56688;50.234;19.292;2022-09-09T03:24:00;21.70;;;16.70;;
69126;SDS011;56688;50.234;19.292;2022-09-09T03:26:30;22.80;;;17.60;;
69126;SDS011;56688;50.234;19.292;2022-09-09T03:28:58;31.00;;;21.60;;
69126;SDS011;56688;50.234;19.292;2022-09-09T03:31:28;24.10;;;18.40;;
69126;SDS011;56688;50.234;19.292;2022-09-09T03:33:57;22.60;;;17.80;;
69126;SDS011;56688;50.234;19.292;2022-09-09T03:36:27;24.80;;;18.20;;
69126;SDS011;56688;50.234;19.292;2022-09-09T03:38:54;22.60;;;16.40;;
69126;SDS011;56688;50.234;19.292;2022-09-09T03:41:24;21.20;;;15.60;;
69126;SDS011;56688;50.234;19.292;2022-09-09T03:43:51;23.20;;;17.00;;
69126;SDS011;56688;50.234;19.292;2022-09-09T03:46:20;23.60;;;16.60;;
69126;SDS011;56688;50.234;19.292;2022-09-09T03:48:49;20.70;;;16.20;;
69126;SDS011;56688;50.234;19.292;2022-09-09T03:51:17;23.10;;;18.00;;
69126;SDS011;56688;50.234;19.292;2022-09-09T03:53:45;20.90;;;15.80;;
69126;SDS011;56688;50.234;19.292;2022-09-09T03:56:13;18.50;;;14.00;;
69126;SDS011;56688;50.234;19.292;2022-09-09T03:58:41;19.30;;;14.30;;
69126;SDS011;56688;50.234;19.292;2022-09-09T04:01:10;19.30;;;14.90;;
69126;SDS011;56688;50.234;19.292;2022-09-09T04:03:41;17.60;;;14.30;;
69126;SDS011;56688;50.234;19.292;2022-09-09T04:06:09;17.90;;;14.70;;
69126;SDS011;56688;50.234;19.292;2022-09-09T04:08:40;21.40;;;15.90;;
69126;SDS011;56688;50.234;19.292;2022-09-09T04:11:08;21.80;;;16.50;;
69126;SDS011;56688;50.234;19.292;2022-09-09T04:13:37;21.30;;;15.10;;
69126;SDS011;56688;50.234;19.292;2022-09-09T04:16:07;21.60;;;16.00;;
69126;SDS011;56688;50.234;19.292;2022-09-09T04:18:37;23.30;;;16.70;;
69126;SDS011;56688;50.234;19.292;2022-09-09T04:21:05;20.50;;;16.30;;
69126;SDS011;56688;50.234;19.292;2022-09-09T04:23:34;27.00;;;18.70;;
69126;SDS011;56688;50.234;19.292;2022-09-09T04:26:02;26.40;;;18.30;;
69126;SDS011;56688;50.234;19.292;2022-09-09T04:28:31;26.20;;;18.80;;
69126;SDS011;56688;50.234;19.292;2022-09-09T04:31:05;26.30;;;18.90;;
69126;SDS011;56688;50.234;19.292;2022-09-09T04:33:36;24.20;;;16.70;;
69126;SDS011;56688;50.234;19.292;2022-09-09T04:36:06;23.70;;;16.10;;
69126;SDS011;56688;50.234;19.292;2022-09-09T04:38:34;25.00;;;15.90;;
69126;SDS011;56688;50.234;19.292;2022-09-09T04:41:02;28.40;;;16.30;;
69126;SDS011;56688;50.234;19.292;2022-09-09T04:43:30;21.00;;;15.20;;
69126;SDS011;56688;50.234;19.292;2022-09-09T04:45:57;29.00;;;16.40;;
69126;SDS011;56688;50.234;19.292;2022-09-09T04:48:26;30.10;;;15.40;;
69126;SDS011;56688;50.234;19.292;2022-09-09T04:53:24;25.90;;;16.80;;
69126;SDS011;56688;50.234;19.292;2022-09-09T04:56:00;26.00;;;15.50;;
69126;SDS011;56688;50.234;19.292;2022-09-09T04:58:29;21.70;;;14.00;;
69126;SDS011;56688;50.234;19.292;2022-09-09T05:03:42;17.40;;;13.30;;
69126;SDS011;56688;50.234;19.292;2022-09-09T05:06:11;16.80;;;13.00;;
69126;SDS011;56688;50.234;19.292;2022-09-09T05:08:41;15.00;;;12.00;;
69126;SDS011;56688;50.234;19.292;2022-09-09T05:13:59;18.60;;;13.70;;
69126;SDS011;56688;50.234;19.292;2022-09-09T05:16:26;21.60;;;15.30;;
69126;SDS011;56688;50.234;19.292;2022-09-09T05:18:54;18.90;;;13.40;;
69126;SDS011;56688;50.234;19.292;2022-09-09T05:21:21;17.50;;;13.90;;
69126;SDS011;56688;50.234;19.292;2022-09-09T05:23:51;18.70;;;14.80;;
69126;SDS011;56688;50.234;19.292;2022-09-09T05:26:20;20.00;;;14.40;;
69126;SDS011;56688;50.234;19.292;2022-09-09T05:28:49;17.90;;;13.70;;
69126;SDS011;56688;50.234;19.292;2022-09-09T05:31:17;19.80;;;15.40;;
69126;SDS011;56688;50.234;19.292;2022-09-09T05:33:47;20.80;;;15.50;;
69126;SDS011;56688;50.234;19.292;2022-09-09T05:36:17;16.80;;;13.00;;
69126;SDS011;56688;50.234;19.292;2022-09-09T05:38:48;19.30;;;14.40;;
69126;SDS011;56688;50.234;19.292;2022-09-09T05:41:17;19.00;;;15.60;;
69126;SDS011;56688;50.234;19.292;2022-09-09T05:43:44;21.00;;;14.00;;
69126;SDS011;56688;50.234;19.292;2022-09-09T05:46:14;17.00;;;13.60;;
69126;SDS011;56688;50.234;19.292;2022-09-09T05:48:45;16.20;;;13.00;;
69126;SDS011;56688;50.234;19.292;2022-09-09T05:51:15;13.40;;;9.00;;
69126;SDS011;56688;50.234;19.292;2022-09-09T05:53:44;17.50;;;10.10;;
69126;SDS011;56688;50.234;19.292;2022-09-09T05:56:13;13.90;;;9.60;;
69126;SDS011;56688;50.234;19.292;2022-09-09T05:58:42;9.80;;;7.30;;
69126;SDS011;56688;50.234;19.292;2022-09-09T06:01:11;9.90;;;7.70;;
69126;SDS011;56688;50.234;19.292;2022-09-09T06:03:41;11.60;;;7.20;;
69126;SDS011;56688;50.234;19.292;2022-09-09T06:06:11;8.50;;;6.00;;
69126;SDS011;56688;50.234;19.292;2022-09-09T06:08:41;7.50;;;5.90;;
69126;SDS011;56688;50.234;19.292;2022-09-09T06:13:42;7.70;;;6.40;;
69126;SDS011;56688;50.234;19.292;2022-09-09T06:16:11;6.60;;;5.40;;
69126;SDS011;56688;50.234;19.292;2022-09-09T06:18:40;6.80;;;5.10;;
69126;SDS011;56688;50.234;19.292;2022-09-09T06:21:09;8.50;;;5.60;;
69126;SDS011;56688;50.234;19.292;2022-09-09T06:23:42;7.10;;;5.10;;
69126;SDS011;56688;50.234;19.292;2022-09-09T06:26:15;6.90;;;5.00;;
69126;SDS011;56688;50.234;19.292;2022-09-09T06:28:47;8.90;;;5.70;;
69126;SDS011;56688;50.234;19.292;2022-09-09T06:31:16;6.40;;;4.50;;
69126;SDS011;56688;50.234;19.292;2022-09-09T06:33:45;6.00;;;5.40;;
69126;SDS011;56688;50.234;19.292;2022-09-09T06:36:13;7.00;;;5.20;;
69126;SDS011;56688;50.234;19.292;2022-09-09T06:38:41;9.20;;;5.50;;
69126;SDS011;56688;50.234;19.292;2022-09-09T06:41:10;9.50;;;6.20;;
69126;SDS011;56688;50.234;19.292;2022-09-09T06:43:39;10.90;;;7.20;;
69126;SDS011;56688;50.234;19.292;2022-09-09T06:48:44;10.00;;;8.00;;
69126;SDS011;56688;50.234;19.292;2022-09-09T06:53:42;18.20;;;12.40;;
69126;SDS011;56688;50.234;19.292;2022-09-09T06:58:51;16.40;;;14.20;;
69126;SDS011;56688;50.234;19.292;2022-09-09T07:01:24;12.50;;;10.90;;
69126;SDS011;56688;50.234;19.292;2022-09-09T07:03:54;15.30;;;11.50;;
69126;SDS011;56688;50.234;19.292;2022-09-09T07:06:26;12.30;;;9.90;;
69126;SDS011;56688;50.234;19.292;2022-09-09T07:08:57;14.10;;;10.10;;
69126;SDS011;56688;50.234;19.292;2022-09-09T07:11:27;12.30;;;9.50;;
69126;SDS011;56688;50.234;19.292;2022-09-09T07:13:56;10.70;;;9.20;;
69126;SDS011;56688;50.234;19.292;2022-09-09T07:16:25;11.10;;;9.20;;
69126;SDS011;56688;50.234;19.292;2022-09-09T07:18:54;10.00;;;7.00;;
69126;SDS011;56688;50.234;19.292;2022-09-09T07:21:26;10.00;;;5.80;;
69126;SDS011;56688;50.234;19.292;2022-09-09T07:23:54;7.20;;;5.70;;
69126;SDS011;56688;50.234;19.292;2022-09-09T07:26:23;7.90;;;6.00;;
69126;SDS011;56688;50.234;19.292;2022-09-09T07:28:52;7.80;;;5.20;;
69126;SDS011;56688;50.234;19.292;2022-09-09T07:31:24;9.30;;;5.80;;
69126;SDS011;56688;50.234;19.292;2022-09-09T07:33:54;8.20;;;5.80;;
69126;SDS011;56688;50.234;19.292;2022-09-09T07:36:23;6.50;;;5.40;;
69126;SDS011;56688;50.234;19.292;2022-09-09T07:39:01;7.60;;;4.40;;
69126;SDS011;56688;50.234;19.292;2022-09-09T07:41:33;10.30;;;4.10;;
69126;SDS011;56688;50.234;19.292;2022-09-09T07:44:05;5.90;;;4.40;;
69126;SDS011;56688;50.234;19.292;2022-09-09T07:46:34;7.00;;;4.40;;
69126;SDS011;56688;50.234;19.292;2022-09-09T07:49:02;5.80;;;3.70;;
69126;SDS011;56688;50.234;19.292;2022-09-09T07:51:32;5.00;;;3.90;;
69126;SDS011;56688;50.234;19.292;2022-09-09T07:54:03;5.90;;;3.90;;
69126;SDS011;56688;50.234;19.292;2022-09-09T07:56:32;6.30;;;4.10;;
69126;SDS011;56688;50.234;19.292;2022-09-09T07:59:00;5.00;;;3.60;;
69126;SDS011;56688;50.234;19.292;2022-09-09T08:01:28;4.80;;;3.30;;
69126;SDS011;56688;50.234;19.292;2022-09-09T08:04:00;4.70;;;3.20;;
69126;SDS011;56688;50.234;19.292;2022-09-09T08:09:04;4.10;;;2.60;;
69126;SDS011;56688;50.234;19.292;2022-09-09T08:11:32;3.20;;;2.50;;
69126;SDS011;56688;50.234;19.292;2022-09-09T08:14:05;5.00;;;2.80;;
69126;SDS011;56688;50.234;19.292;2022-09-09T08:16:37;7.70;;;2.90;;
69126;SDS011;56688;50.234;19.292;2022-09-09T08:19:07;4.10;;;2.40;;
69126;SDS011;56688;50.234;19.292;2022-09-09T08:21:35;3.90;;;2.70;;
69126;SDS011;56688;50.234;19.292;2022-09-09T08:24:04;3.60;;;2.40;;
69126;SDS011;56688;50.234;19.292;2022-09-09T08:26:33;3.20;;;2.20;;
69126;SDS011;56688;50.234;19.292;2022-09-09T08:29:03;2.10;;;1.90;;
69126;SDS011;56688;50.234;19.292;2022-09-09T08:31:33;3.50;;;2.30;;
69126;SDS011;56688;50.234;19.292;2022-09-09T08:34:01;3.70;;;2.30;;
69126;SDS011;56688;50.234;19.292;2022-09-09T08:36:31;6.20;;;2.40;;
69126;SDS011;56688;50.234;19.292;2022-09-09T08:39:00;2.60;;;1.90;;
69126;SDS011;56688;50.234;19.292;2022-09-09T08:49:43;3.70;;;1.70;;
69126;SDS011;56688;50.234;19.292;2022-09-09T08:52:21;2.40;;;1.50;;
69126;SDS011;56688;50.234;19.292;2022-09-09T08:54:51;2.40;;;1.70;;
69126;SDS011;56688;50.234;19.292;2022-09-09T08:57:23;2.00;;;1.40;;
69126;SDS011;56688;50.234;19.292;2022-09-09T09:02:25;3.80;;;1.40;;
69126;SDS011;56688;50.234;19.292;2022-09-09T09:05:07;3.20;;;1.50;;
69126;SDS011;56688;50.234;19.292;2022-09-09T09:07:46;2.10;;;1.10;;
69126;SDS011;56688;50.234;19.292;2022-09-09T09:10:34;2.30;;;1.00;;
69126;SDS011;56688;50.234;19.292;2022-09-09T09:13:13;2.20;;;1.20;;
69126;SDS011;56688;50.234;19.292;2022-09-09T09:15:44;1.70;;;0.90;;
69126;SDS011;56688;50.234;19.292;2022-09-09T09:20:50;1.80;;;1.30;;
69126;SDS011;56688;50.234;19.292;2022-09-09T09:23:22;4.50;;;1.40;;
69126;SDS011;56688;50.234;19.292;2022-09-09T09:25:54;2.00;;;1.20;;
69126;SDS011;56688;50.234;19.292;2022-09-09T09:28:27;3.50;;;1.30;;
69126;SDS011;56688;50.234;19.292;2022-09-09T09:31:03;2.40;;;1.50;;
69126;SDS011;56688;50.234;19.292;2022-09-09T09:33:35;2.80;;;1.50;;
69126;SDS011;56688;50.234;19.292;2022-09-09T09:36:13;1.70;;;1.20;;
69126;SDS011;56688;50.234;19.292;2022-09-09T09:38:54;2.50;;;1.10;;
69126;SDS011;56688;50.234;19.292;2022-09-09T09:41:44;2.90;;;1.10;;
69126;SDS011;56688;50.234;19.292;2022-09-09T09:50:03;2.10;;;1.20;;
69126;SDS011;56688;50.234;19.292;2022-09-09T09:52:34;2.30;;;0.80;;
69126;SDS011;56688;50.234;19.292;2022-09-09T09:55:04;4.90;;;1.40;;
69126;SDS011;56688;50.234;19.292;2022-09-09T09:57:41;2.40;;;1.00;;
69126;SDS011;56688;50.234;19.292;2022-09-09T10:02:43;4.00;;;1.10;;
69126;SDS011;56688;50.234;19.292;2022-09-09T10:05:25;1.20;;;1.10;;
69126;SDS011;56688;50.234;19.292;2022-09-09T10:13:18;2.30;;;1.30;;
69126;SDS011;56688;50.234;19.292;2022-09-09T10:26:58;2.70;;;1.10;;
69126;SDS011;56688;50.234;19.292;2022-09-09T10:35:10;1.90;;;1.00;;
69126;SDS011;56688;50.234;19.292;2022-09-09T10:37:43;1.60;;;0.90;;
69126;SDS011;56688;50.234;19.292;2022-09-09T10:40:19;2.30;;;0.80;;
69126;SDS011;56688;50.234;19.292;2022-09-09T10:42:47;1.30;;;0.90;;
69126;SDS011;56688;50.234;19.292;2022-09-09T10:50:29;3.10;;;1.00;;
69126;SDS011;56688;50.234;19.292;2022-09-09T10:53:32;2.80;;;1.10;;
69126;SDS011;56688;50.234;19.292;2022-09-09T10:56:06;1.70;;;1.00;;
69126;SDS011;56688;50.234;19.292;2022-09-09T10:58:41;1.70;;;1.10;;
69126;SDS011;56688;50.234;19.292;2022-09-09T11:01:15;2.00;;;1.10;;
69126;SDS011;56688;50.234;19.292;2022-09-09T11:03:44;1.40;;;1.10;;
69126;SDS011;56688;50.234;19.292;2022-09-09T11:06:19;1.70;;;1.00;;
69126;SDS011;56688;50.234;19.292;2022-09-09T11:08:50;1.10;;;1.00;;
69126;SDS011;56688;50.234;19.292;2022-09-09T11:11:32;2.20;;;1.20;;
69126;SDS011;56688;50.234;19.292;2022-09-09T11:14:08;5.20;;;1.20;;
69126;SDS011;56688;50.234;19.292;2022-09-09T11:19:21;1.40;;;1.00;;
69126;SDS011;56688;50.234;19.292;2022-09-09T11:22:02;3.90;;;1.20;;
69126;SDS011;56688;50.234;19.292;2022-09-09T11:30:21;2.20;;;1.10;;
69126;SDS011;56688;50.234;19.292;2022-09-09T11:36:01;1.90;;;1.20;;
69126;SDS011;56688;50.234;19.292;2022-09-09T11:38:39;1.50;;;1.20;;
69126;SDS011;56688;50.234;19.292;2022-09-09T11:41:12;1.80;;;1.00;;
69126;SDS011;56688;50.234;19.292;2022-09-09T11:43:48;1.60;;;1.00;;
69126;SDS011;56688;50.234;19.292;2022-09-09T11:46:19;2.70;;;1.30;;
69126;SDS011;56688;50.234;19.292;2022-09-09T11:51:33;1.40;;;1.00;;
69126;SDS011;56688;50.234;19.292;2022-09-09T11:54:02;2.40;;;1.10;;
69126;SDS011;56688;50.234;19.292;2022-09-09T12:04:46;1.40;;;0.90;;
69126;SDS011;56688;50.234;19.292;2022-09-09T12:07:22;3.40;;;1.10;;
69126;SDS011;56688;50.234;19.292;2022-09-09T12:12:55;1.80;;;1.00;;
69126;SDS011;56688;50.234;19.292;2022-09-09T12:15:33;3.00;;;1.10;;
69126;SDS011;56688;50.234;19.292;2022-09-09T12:18:01;2.60;;;1.00;;
69126;SDS011;56688;50.234;19.292;2022-09-09T12:37:02;1.60;;;1.00;;
69126;SDS011;56688;50.234;19.292;2022-09-09T12:39:34;1.80;;;0.90;;
69126;SDS011;56688;50.234;19.292;2022-09-09T12:42:14;2.00;;;0.90;;
69126;SDS011;56688;50.234;19.292;2022-09-09T12:44:52;1.90;;;1.00;;
69126;SDS011;56688;50.234;19.292;2022-09-09T12:47:20;2.00;;;1.10;;
69126;SDS011;56688;50.234;19.292;2022-09-09T12:49:55;1.40;;;1.10;;
69126;SDS011;56688;50.234;19.292;2022-09-09T12:52:26;1.00;;;0.90;;
69126;SDS011;56688;50.234;19.292;2022-09-09T12:54:58;1.50;;;0.90;;
69126;SDS011;56688;50.234;19.292;2022-09-09T12:57:30;2.60;;;0.90;;
69126;SDS011;56688;50.234;19.292;2022-09-09T13:02:51;1.60;;;0.90;;
69126;SDS011;56688;50.234;19.292;2022-09-09T13:05:22;1.40;;;1.10;;
69126;SDS011;56688;50.234;19.292;2022-09-09T13:07:51;2.30;;;0.90;;
69126;SDS011;56688;50.234;19.292;2022-09-09T13:10:21;2.60;;;0.90;;
69126;SDS011;56688;50.234;19.292;2022-09-09T13:13:13;1.60;;;0.80;;
69126;SDS011;56688;50.234;19.292;2022-09-09T13:18:28;2.20;;;1.10;;
69126;SDS011;56688;50.234;19.292;2022-09-09T13:20:57;2.30;;;1.00;;
69126;SDS011;56688;50.234;19.292;2022-09-09T13:23:26;2.10;;;1.30;;
69126;SDS011;56688;50.234;19.292;2022-09-09T13:25:57;3.40;;;1.30;;
69126;SDS011;56688;50.234;19.292;2022-09-09T13:28:26;1.70;;;1.20;;
69126;SDS011;56688;50.234;19.292;2022-09-09T13:33:34;4.00;;;1.10;;
69126;SDS011;56688;50.234;19.292;2022-09-09T13:36:07;3.10;;;1.10;;
69126;SDS011;56688;50.234;19.292;2022-09-09T13:38:38;4.10;;;1.30;;
69126;SDS011;56688;50.234;19.292;2022-09-09T13:41:22;2.30;;;1.10;;
69126;SDS011;56688;50.234;19.292;2022-09-09T13:43:51;1.60;;;0.90;;
69126;SDS011;56688;50.234;19.292;2022-09-09T13:54:04;2.20;;;1.20;;
69126;SDS011;56688;50.234;19.292;2022-09-09T13:56:33;2.10;;;1.20;;
69126;SDS011;56688;50.234;19.292;2022-09-09T13:59:02;1.80;;;1.10;;
69126;SDS011;56688;50.234;19.292;2022-09-09T14:01:31;1.40;;;1.10;;
69126;SDS011;56688;50.234;19.292;2022-09-09T14:04:01;2.50;;;0.90;;
69126;SDS011;56688;50.234;19.292;2022-09-09T14:06:28;1.40;;;0.80;;
69126;SDS011;56688;50.234;19.292;2022-09-09T14:08:56;2.70;;;0.90;;
69126;SDS011;56688;50.234;19.292;2022-09-09T14:11:23;1.40;;;0.90;;
69126;SDS011;56688;50.234;19.292;2022-09-09T14:13:50;1.10;;;0.90;;
69126;SDS011;56688;50.234;19.292;2022-09-09T14:16:17;1.00;;;0.80;;
69126;SDS011;56688;50.234;19.292;2022-09-09T14:18:44;1.80;;;0.80;;
69126;SDS011;56688;50.234;19.292;2022-09-09T14:21:12;1.40;;;0.80;;
69126;SDS011;56688;50.234;19.292;2022-09-09T14:23:39;2.70;;;1.00;;
69126;SDS011;56688;50.234;19.292;2022-09-09T14:26:07;1.80;;;0.90;;
69126;SDS011;56688;50.234;19.292;2022-09-09T14:28:35;3.90;;;1.10;;
69126;SDS011;56688;50.234;19.292;2022-09-09T14:31:20;1.00;;;0.90;;
69126;SDS011;56688;50.234;19.292;2022-09-09T14:33:47;1.40;;;0.80;;
69126;SDS011;56688;50.234;19.292;2022-09-09T14:36:14;1.60;;;0.90;;
69126;SDS011;56688;50.234;19.292;2022-09-09T14:38:41;1.30;;;1.00;;
69126;SDS011;56688;50.234;19.292;2022-09-09T14:41:10;1.60;;;0.90;;
69126;SDS011;56688;50.234;19.292;2022-09-09T14:43:40;2.40;;;0.90;;
69126;SDS011;56688;50.234;19.292;2022-09-09T14:46:07;2.20;;;0.90;;
69126;SDS011;56688;50.234;19.292;2022-09-09T14:48:36;0.90;;;0.70;;
69126;SDS011;56688;50.234;19.292;2022-09-09T14:51:06;0.80;;;0.80;;
69126;SDS011;56688;50.234;19.292;2022-09-09T14:53:33;1.30;;;1.00;;
69126;SDS011;56688;50.234;19.292;2022-09-09T14:56:05;2.70;;;1.00;;
69126;SDS011;56688;50.234;19.292;2022-09-09T14:58:34;2.20;;;1.20;;
69126;SDS011;56688;50.234;19.292;2022-09-09T15:01:03;1.80;;;1.00;;
69126;SDS011;56688;50.234;19.292;2022-09-09T15:03:33;2.70;;;1.00;;
69126;SDS011;56688;50.234;19.292;2022-09-09T15:06:08;1.10;;;0.80;;
69126;SDS011;56688;50.234;19.292;2022-09-09T15:08:38;1.60;;;0.90;;
69126;SDS011;56688;50.234;19.292;2022-09-09T15:11:08;2.80;;;0.90;;
69126;SDS011;56688;50.234;19.292;2022-09-09T15:13:38;1.90;;;0.90;;
69126;SDS011;56688;50.234;19.292;2022-09-09T15:16:07;1.30;;;1.00;;
69126;SDS011;56688;50.234;19.292;2022-09-09T15:18:36;3.10;;;1.20;;
69126;SDS011;56688;50.234;19.292;2022-09-09T15:21:03;1.50;;;1.30;;
69126;SDS011;56688;50.234;19.292;2022-09-09T15:23:32;3.60;;;1.30;;
69126;SDS011;56688;50.234;19.292;2022-09-09T15:25:59;3.00;;;1.30;;
69126;SDS011;56688;50.234;19.292;2022-09-09T15:28:27;2.70;;;1.10;;
69126;SDS011;56688;50.234;19.292;2022-09-09T15:30:54;2.80;;;1.20;;
69126;SDS011;56688;50.234;19.292;2022-09-09T15:33:21;1.30;;;1.00;;
69126;SDS011;56688;50.234;19.292;2022-09-09T15:35:48;2.40;;;1.00;;
69126;SDS011;56688;50.234;19.292;2022-09-09T15:38:16;2.40;;;1.20;;
69126;SDS011;56688;50.234;19.292;2022-09-09T15:40:44;2.60;;;0.90;;
69126;SDS011;56688;50.234;19.292;2022-09-09T15:43:13;1.50;;;1.10;;
69126;SDS011;56688;50.234;19.292;2022-09-09T15:45:40;1.40;;;1.10;;
69126;SDS011;56688;50.234;19.292;2022-09-09T15:48:06;2.20;;;1.30;;
69126;SDS011;56688;50.234;19.292;2022-09-09T15:50:33;2.60;;;1.30;;
69126;SDS011;56688;50.234;19.292;2022-09-09T15:53:00;3.50;;;1.20;;
69126;SDS011;56688;50.234;19.292;2022-09-09T15:55:27;3.50;;;1.30;;
69126;SDS011;56688;50.234;19.292;2022-09-09T15:57:55;6.60;;;2.90;;
69126;SDS011;56688;50.234;19.292;2022-09-09T16:00:24;7.10;;;2.50;;
69126;SDS011;56688;50.234;19.292;2022-09-09T16:02:51;5.20;;;2.30;;
69126;SDS011;56688;50.234;19.292;2022-09-09T16:05:18;6.10;;;1.90;;
69126;SDS011;56688;50.234;19.292;2022-09-09T16:07:45;5.40;;;1.90;;
69126;SDS011;56688;50.234;19.292;2022-09-09T16:10:12;5.60;;;1.60;;
69126;SDS011;56688;50.234;19.292;2022-09-09T16:12:40;5.20;;;2.10;;
69126;SDS011;56688;50.234;19.292;2022-09-09T16:15:07;5.50;;;1.80;;
69126;SDS011;56688;50.234;19.292;2022-09-09T16:17:33;4.50;;;1.60;;
69126;SDS011;56688;50.234;19.292;2022-09-09T16:20:04;3.20;;;1.30;;
69126;SDS011;56688;50.234;19.292;2022-09-09T16:22:34;4.50;;;1.20;;
69126;SDS011;56688;50.234;19.292;2022-09-09T16:25:01;3.80;;;1.60;;
69126;SDS011;56688;50.234;19.292;2022-09-09T16:27:28;2.50;;;1.60;;
69126;SDS011;56688;50.234;19.292;2022-09-09T16:29:55;2.20;;;1.40;;
69126;SDS011;56688;50.234;19.292;2022-09-09T16:32:21;1.90;;;1.40;;
69126;SDS011;56688;50.234;19.292;2022-09-09T16:34:48;5.00;;;1.70;;
69126;SDS011;56688;50.234;19.292;2022-09-09T16:37:15;3.80;;;1.80;;
69126;SDS011;56688;50.234;19.292;2022-09-09T16:39:42;3.60;;;1.40;;
69126;SDS011;56688;50.234;19.292;2022-09-09T16:42:08;2.60;;;1.40;;
69126;SDS011;56688;50.234;19.292;2022-09-09T16:44:36;5.10;;;1.50;;
69126;SDS011;56688;50.234;19.292;2022-09-09T16:47:03;2.60;;;1.30;;
69126;SDS011;56688;50.234;19.292;2022-09-09T16:49:30;2.80;;;1.40;;
69126;SDS011;56688;50.234;19.292;2022-09-09T16:51:57;1.90;;;1.60;;
69126;SDS011;56688;50.234;19.292;2022-09-09T16:54:25;3.00;;;1.40;;
69126;SDS011;56688;50.234;19.292;2022-09-09T16:56:53;2.50;;;1.50;;
69126;SDS011;56688;50.234;19.292;2022-09-09T16:59:20;1.90;;;1.60;;
69126;SDS011;56688;50.234;19.292;2022-09-09T17:01:49;3.60;;;1.70;;
69126;SDS011;56688;50.234;19.292;2022-09-09T17:04:18;2.60;;;1.60;;
69126;SDS011;56688;50.234;19.292;2022-09-09T17:06:48;4.80;;;1.50;;
69126;SDS011;56688;50.234;19.292;2022-09-09T17:09:16;3.60;;;1.80;;
69126;SDS011;56688;50.234;19.292;2022-09-09T17:11:44;5.40;;;1.80;;
69126;SDS011;56688;50.234;19.292;2022-09-09T17:14:13;2.20;;;1.80;;
69126;SDS011;56688;50.234;19.292;2022-09-09T17:16:42;2.30;;;1.60;;
69126;SDS011;56688;50.234;19.292;2022-09-09T17:19:10;3.20;;;1.80;;
69126;SDS011;56688;50.234;19.292;2022-09-09T17:21:38;2.70;;;1.70;;
69126;SDS011;56688;50.234;19.292;2022-09-09T17:24:26;7.20;;;2.40;;
69126;SDS011;56688;50.234;19.292;2022-09-09T17:26:53;9.50;;;3.80;;
69126;SDS011;56688;50.234;19.292;2022-09-09T17:29:21;5.20;;;2.50;;